createdAt,value
2018-11-14T00:00:28.923Z,77.08
2018-11-14T00:02:58.805Z,76.94
2018-11-14T00:05:28.003Z,77.24
2018-11-14T00:07:57.195Z,77.19
2018-11-14T00:10:26.359Z,76.80
2018-11-14T00:12:55.489Z,77.30
2018-11-14T00:15:25.811Z,77.65
2018-11-14T00:17:55.221Z,77.56
2018-11-14T00:20:24.396Z,77.58
2018-11-14T00:22:53.733Z,77.47
2018-11-14T00:25:22.884Z,77.29
2018-11-14T00:27:52.099Z,76.95
2018-11-14T00:30:23.338Z,77.39
2018-11-14T00:32:52.496Z,77.25
2018-11-14T00:35:21.821Z,76.66
2018-11-14T00:37:51.456Z,77.31
2018-11-14T00:40:21.273Z,76.97
2018-11-14T00:42:50.725Z,77.32
2018-11-14T00:45:21.167Z,77.15
2018-11-14T00:47:50.669Z,76.66
2018-11-14T00:50:20.280Z,76.65
2018-11-14T00:52:49.429Z,76.35
2018-11-14T00:55:19.901Z,76.76
2018-11-14T00:57:49.913Z,76.87
2018-11-14T01:00:23.546Z,76.36
2018-11-14T01:02:52.880Z,77.04
2018-11-14T01:05:22.053Z,76.97
2018-11-14T01:07:51.220Z,77.68
2018-11-14T01:10:21.534Z,77.86
2018-11-14T01:12:51.260Z,77.96
2018-11-14T01:15:21.590Z,78.04
2018-11-14T01:17:50.861Z,77.78
2018-11-14T01:20:21.119Z,77.70
2018-11-14T01:22:50.500Z,77.85
2018-11-14T01:25:20.116Z,77.68
2018-11-14T01:27:49.282Z,78.31
2018-11-14T01:30:19.776Z,77.79
2018-11-14T01:32:49.428Z,77.81
2018-11-14T01:35:19.081Z,77.28
2018-11-14T01:37:48.424Z,77.22
2018-11-14T01:40:19.969Z,77.26
2018-11-14T01:42:50.301Z,77.02
2018-11-14T01:45:19.477Z,76.68
2018-11-14T01:47:48.826Z,76.76
2018-11-14T01:50:18.197Z,76.87
2018-11-14T01:52:47.364Z,76.79
2018-11-14T01:55:17.654Z,77.16
2018-11-14T01:57:46.851Z,76.99
2018-11-14T02:00:18.202Z,77.26
2018-11-14T02:02:47.413Z,77.04
2018-11-14T02:05:16.587Z,77.42
2018-11-14T02:07:45.754Z,76.89
2018-11-14T02:10:17.535Z,76.50
2018-11-14T02:12:46.954Z,76.46
2018-11-14T02:15:18.971Z,76.84
2018-11-14T02:17:48.237Z,76.73
2018-11-14T02:20:17.490Z,76.83
2018-11-14T02:22:47.025Z,76.89
2018-11-14T02:25:16.747Z,77.09
2018-11-14T02:27:45.920Z,77.14
2018-11-14T02:30:17.879Z,77.19
2018-11-14T02:32:47.022Z,76.75
2018-11-14T02:35:16.190Z,76.45
2018-11-14T02:37:45.791Z,77.05
2018-11-14T02:40:17.251Z,76.95
2018-11-14T02:42:46.548Z,76.77
2018-11-14T02:45:15.949Z,76.79
2018-11-14T02:47:45.106Z,76.48
2018-11-14T02:50:15.773Z,76.62
2018-11-14T02:52:44.930Z,76.58
2018-11-14T02:55:15.101Z,76.69
2018-11-14T02:57:44.726Z,76.81
2018-11-14T03:00:17.601Z,76.71
2018-11-14T03:02:46.848Z,76.92
2018-11-14T03:05:16.414Z,76.96
2018-11-14T03:07:45.564Z,77.23
2018-11-14T03:10:18.563Z,76.70
2018-11-14T03:12:47.715Z,76.94
2018-11-14T03:15:19.670Z,76.78
2018-11-14T03:17:48.843Z,76.60
2018-11-14T03:20:19.221Z,76.54
2018-11-14T03:22:48.560Z,76.99
2018-11-14T03:25:17.706Z,76.90
2018-11-14T03:27:46.865Z,77.04
2018-11-14T03:30:17.561Z,77.39
2018-11-14T03:32:46.782Z,77.30
2018-11-14T03:35:16.165Z,77.17
2018-11-14T03:37:45.327Z,77.06
2018-11-14T03:40:15.793Z,76.70
2018-11-14T03:42:45.120Z,76.62
2018-11-14T03:45:14.996Z,76.93
2018-11-14T03:47:44.163Z,77.08
2018-11-14T03:50:13.426Z,76.75
2018-11-14T03:52:42.565Z,76.35
2018-11-14T03:55:11.734Z,76.60
2018-11-14T03:57:40.891Z,76.69
2018-11-14T04:00:14.150Z,76.85
2018-11-14T04:02:44.297Z,76.83
2018-11-14T04:05:13.436Z,76.80
2018-11-14T04:07:43.060Z,76.67
2018-11-14T04:10:13.227Z,76.83
2018-11-14T04:12:42.834Z,76.91
2018-11-14T04:15:13.214Z,76.47
2018-11-14T04:17:42.365Z,76.54
2018-11-14T04:20:16.176Z,76.42
2018-11-14T04:22:45.988Z,76.42
2018-11-14T04:25:16.597Z,76.38
2018-11-14T04:27:46.358Z,76.38
2018-11-14T04:30:17.572Z,77.05
2018-11-14T04:32:46.752Z,76.80
2018-11-14T04:35:16.934Z,76.92
2018-11-14T04:37:46.085Z,76.42
2018-11-14T04:40:18.244Z,76.96
2018-11-14T04:42:47.398Z,76.53
2018-11-14T04:45:19.199Z,77.00
2018-11-14T04:47:48.487Z,76.92
2018-11-14T04:50:21.811Z,76.56
2018-11-14T04:52:51.477Z,76.57
2018-11-14T04:55:21.756Z,76.55
2018-11-14T04:57:51.342Z,76.68
2018-11-14T05:00:21.692Z,76.51
2018-11-14T05:02:51.168Z,76.79
2018-11-14T05:05:21.405Z,76.73
2018-11-14T05:07:50.566Z,77.25
2018-11-14T05:10:21.825Z,77.36
2018-11-14T05:12:51.429Z,77.01
2018-11-14T05:15:21.884Z,77.21
2018-11-14T05:17:51.809Z,76.77
2018-11-14T05:20:21.826Z,77.33
2018-11-14T05:22:51.605Z,77.31
2018-11-14T05:25:21.129Z,76.90
2018-11-14T05:27:50.329Z,76.72
2018-11-14T05:30:21.702Z,77.14
2018-11-14T05:32:51.382Z,77.21
2018-11-14T05:35:20.539Z,77.30
2018-11-14T05:37:50.001Z,77.34
2018-11-14T05:40:20.684Z,77.50
2018-11-14T05:42:50.419Z,77.37
2018-11-14T05:45:21.001Z,77.93
2018-11-14T05:47:50.123Z,77.80
2018-11-14T05:50:20.349Z,77.60
2018-11-14T05:52:49.551Z,77.66
2018-11-14T05:55:18.742Z,77.10
2018-11-14T05:57:48.263Z,77.83
2018-11-14T06:00:24.355Z,78.60
2018-11-14T06:02:53.860Z,78.10
2018-11-14T06:05:23.061Z,77.72
2018-11-14T06:07:52.269Z,77.84
2018-11-14T06:10:21.754Z,77.95
2018-11-14T06:12:50.923Z,78.74
2018-11-14T06:15:20.667Z,79.97
2018-11-14T06:17:50.753Z,80.50
2018-11-14T06:20:21.311Z,81.60
2018-11-14T06:22:51.306Z,82.09
2018-11-14T06:25:31.895Z,82.98
2018-11-14T06:28:02.496Z,83.02
2018-11-14T06:30:32.186Z,82.64
2018-11-14T06:33:02.108Z,82.64
2018-11-14T06:35:31.332Z,82.37
2018-11-14T06:38:00.553Z,82.00
2018-11-14T06:40:29.918Z,82.15
2018-11-14T06:42:59.085Z,82.28
2018-11-14T06:45:29.526Z,83.34
2018-11-14T06:47:59.883Z,82.98
2018-11-14T06:50:29.098Z,83.09
2018-11-14T06:53:02.806Z,82.77
2018-11-14T06:55:32.296Z,82.78
2018-11-14T06:58:01.469Z,82.20
2018-11-14T07:00:33.612Z,82.37
2018-11-14T07:03:04.046Z,82.26
2018-11-14T07:05:33.295Z,81.95
2018-11-14T07:08:02.396Z,81.79
2018-11-14T07:10:35.263Z,82.34
2018-11-14T07:13:05.872Z,82.53
2018-11-14T07:15:35.762Z,82.34
2018-11-14T07:18:05.144Z,82.85
2018-11-14T07:20:36.543Z,83.21
2018-11-14T07:23:05.834Z,83.72
2018-11-14T07:25:35.038Z,84.09
2018-11-14T07:28:04.203Z,84.04
2018-11-14T07:30:34.070Z,84.45
2018-11-14T07:33:04.673Z,85.09
2018-11-14T07:35:34.749Z,84.89
2018-11-14T07:38:37.706Z,84.39
2018-11-14T07:41:09.254Z,84.77
2018-11-14T07:43:39.137Z,84.19
2018-11-14T07:46:08.884Z,84.12
2018-11-14T07:48:38.473Z,84.26
2018-11-14T07:51:07.986Z,84.80
2018-11-14T07:53:37.161Z,83.92
2018-11-14T07:56:06.605Z,83.50
2018-11-14T07:58:35.802Z,84.63
2018-11-14T08:01:05.171Z,83.97
2018-11-14T08:03:34.313Z,83.38
2018-11-14T08:06:03.429Z,83.50
2018-11-14T08:08:32.618Z,83.15
2018-11-14T08:11:01.726Z,82.66
2018-11-14T08:13:31.989Z,82.78
2018-11-14T08:16:01.769Z,80.77
2018-11-14T08:18:31.112Z,81.47
2018-11-14T08:21:01.104Z,81.45
2018-11-14T08:23:30.221Z,81.44
2018-11-14T08:25:59.394Z,81.89
2018-11-14T08:28:28.539Z,82.74
2018-11-14T08:30:57.821Z,82.32
2018-11-14T08:33:27.299Z,82.20
2018-11-14T08:35:56.451Z,82.56
2018-11-14T08:38:25.575Z,82.69
2018-11-14T08:40:54.800Z,82.43
2018-11-14T08:43:24.008Z,82.37
2018-11-14T08:45:53.136Z,82.88
2018-11-14T08:48:22.299Z,82.70
2018-11-14T08:50:51.477Z,82.08
2018-11-14T08:53:20.629Z,82.04
2018-11-14T08:55:49.777Z,82.00
2018-11-14T08:58:18.953Z,81.85
2018-11-14T09:00:48.340Z,82.29
2018-11-14T09:03:17.601Z,82.48
2018-11-14T09:05:46.757Z,82.48
2018-11-14T09:08:15.956Z,82.35
2018-11-14T09:10:45.105Z,82.60
2018-11-14T09:13:15.750Z,83.72
2018-11-14T09:15:44.962Z,83.48
2018-11-14T09:18:14.202Z,83.38
2018-11-14T09:20:43.314Z,82.12
2018-11-14T09:23:12.513Z,82.08
2018-11-14T09:25:41.637Z,80.86
2018-11-14T09:28:10.790Z,81.41
2018-11-14T09:30:39.924Z,80.31
2018-11-14T09:33:09.232Z,80.83
2018-11-14T09:35:38.397Z,79.83
2018-11-14T09:38:07.592Z,80.53
2018-11-14T09:40:36.869Z,79.54
2018-11-14T09:43:06.048Z,80.07
2018-11-14T09:45:35.214Z,80.80
2018-11-14T09:48:04.349Z,80.25
2018-11-14T09:50:33.787Z,80.85
2018-11-14T09:53:04.260Z,79.82
2018-11-14T09:55:33.340Z,80.23
2018-11-14T09:58:02.801Z,81.40
2018-11-14T10:00:33.348Z,80.82
2018-11-14T10:03:08.841Z,81.20
2018-11-14T10:05:38.071Z,82.56
2018-11-14T10:08:07.223Z,82.41
2018-11-14T10:10:36.584Z,82.01
2018-11-14T10:13:06.362Z,81.95
2018-11-14T10:15:35.936Z,81.30
2018-11-14T10:18:05.131Z,81.84
2018-11-14T10:20:34.293Z,81.63
2018-11-14T10:23:03.506Z,82.16
2018-11-14T10:25:32.663Z,81.15
2018-11-14T10:28:01.919Z,81.69
2018-11-14T10:30:31.043Z,81.23
2018-11-14T10:33:00.461Z,81.62
2018-11-14T10:35:29.661Z,82.28
2018-11-14T10:37:58.841Z,82.63
2018-11-14T10:40:28.855Z,81.50
2018-11-14T10:42:58.243Z,82.00
2018-11-14T10:45:27.901Z,80.97
2018-11-14T10:47:57.130Z,80.60
2018-11-14T10:50:27.401Z,80.82
2018-11-14T10:52:56.552Z,81.37
2018-11-14T10:55:25.738Z,81.21
2018-11-14T10:57:55.316Z,80.92
2018-11-14T11:00:31.019Z,82.10
2018-11-14T11:03:07.004Z,82.38
2018-11-14T11:05:44.252Z,82.09
2018-11-14T11:08:20.004Z,81.95
2018-11-14T11:10:54.574Z,81.28
2018-11-14T11:13:29.042Z,81.00
2018-11-14T11:16:03.390Z,80.86
2018-11-14T11:18:33.932Z,81.21
2018-11-14T11:21:03.157Z,81.52
2018-11-14T11:23:32.384Z,83.59
2018-11-14T11:26:01.551Z,83.09
2018-11-14T11:28:30.759Z,81.91
2018-11-14T11:30:59.945Z,81.64
2018-11-14T11:33:29.152Z,82.06
2018-11-14T11:35:58.348Z,81.89
2018-11-14T11:38:27.518Z,81.12
2018-11-14T11:40:56.705Z,81.34
2018-11-14T11:43:25.878Z,82.67
2018-11-14T11:45:55.073Z,81.96
2018-11-14T11:48:24.329Z,81.95
2018-11-14T11:50:53.601Z,81.59
2018-11-14T11:53:22.821Z,82.01
2018-11-14T11:55:52.144Z,81.75
2018-11-14T11:58:21.358Z,81.41
2018-11-14T12:00:50.592Z,81.44
2018-11-14T12:03:19.709Z,81.24
2018-11-14T12:05:48.950Z,80.85
2018-11-14T12:08:18.063Z,81.25
2018-11-14T12:10:47.387Z,80.37
2018-11-14T12:13:16.523Z,80.47
2018-11-14T12:15:45.666Z,81.16
2018-11-14T12:18:14.866Z,82.20
2018-11-14T12:20:44.093Z,81.96
2018-11-14T12:23:13.746Z,80.98
2018-11-14T12:25:43.132Z,81.17
2018-11-14T12:28:12.356Z,81.34
2018-11-14T12:30:41.636Z,82.12
2018-11-14T12:33:10.869Z,80.27
2018-11-14T12:35:40.104Z,80.25
2018-11-14T12:38:09.225Z,81.15
2018-11-14T12:40:38.405Z,81.59
2018-11-14T12:43:08.186Z,82.36
2018-11-14T12:45:37.337Z,82.62
2018-11-14T12:48:06.887Z,82.81
2018-11-14T12:50:36.088Z,82.79
2018-11-14T12:53:05.348Z,83.18
2018-11-14T12:55:34.593Z,81.50
2018-11-14T12:58:03.827Z,82.88
2018-11-14T13:00:33.000Z,82.91
2018-11-14T13:03:02.251Z,81.81
2018-11-14T13:05:31.433Z,82.46
2018-11-14T13:08:00.649Z,82.61
2018-11-14T13:10:29.789Z,82.63
2018-11-14T13:12:58.956Z,82.66
2018-11-14T13:15:28.164Z,83.04
2018-11-14T13:17:57.414Z,82.67
2018-11-14T13:20:26.599Z,83.20
2018-11-14T13:22:55.822Z,82.81
2018-11-14T13:25:25.090Z,82.69
2018-11-14T13:27:54.360Z,83.00
2018-11-14T13:30:24.434Z,82.69
2018-11-14T13:32:54.654Z,83.24
2018-11-14T13:35:24.344Z,83.10
2018-11-14T13:37:53.421Z,82.59
2018-11-14T13:40:22.609Z,82.97
2018-11-14T13:42:51.895Z,82.80
2018-11-14T13:45:21.065Z,82.34
2018-11-14T13:47:50.632Z,82.55
2018-11-14T13:50:21.701Z,82.23
2018-11-14T13:52:50.953Z,82.42
2018-11-14T13:55:21.365Z,82.75
2018-11-14T13:57:51.585Z,82.09
2018-11-14T14:00:21.965Z,82.81
2018-11-14T14:02:52.239Z,82.63
2018-11-14T14:05:22.805Z,82.39
2018-11-14T14:07:52.002Z,82.61
2018-11-14T14:10:21.206Z,82.32
2018-11-14T14:12:51.824Z,82.20
2018-11-14T14:15:23.288Z,82.49
2018-11-14T14:17:52.696Z,82.75
2018-11-14T14:20:22.527Z,82.24
2018-11-14T14:22:51.737Z,81.92
2018-11-14T14:25:21.948Z,81.26
2018-11-14T14:27:51.117Z,81.18
2018-11-14T14:30:22.965Z,81.21
2018-11-14T14:32:52.167Z,81.41
2018-11-14T14:35:22.294Z,81.31
2018-11-14T14:37:51.492Z,81.05
2018-11-14T14:40:22.840Z,81.53
2018-11-14T14:42:52.104Z,81.91
2018-11-14T14:45:22.735Z,81.66
2018-11-14T14:47:51.988Z,81.70
2018-11-14T14:50:21.425Z,81.75
2018-11-14T14:52:50.602Z,81.62
2018-11-14T14:55:22.939Z,81.57
2018-11-14T14:57:52.100Z,81.31
2018-11-14T15:00:22.549Z,81.77
2018-11-14T15:02:51.711Z,81.91
2018-11-14T15:05:20.891Z,81.36
2018-11-14T15:07:50.056Z,81.88
2018-11-14T15:10:20.553Z,81.88
2018-11-14T15:12:49.758Z,81.90
2018-11-14T15:15:19.506Z,81.81
2018-11-14T15:17:48.799Z,82.14
2018-11-14T15:20:24.097Z,82.08
2018-11-14T15:22:53.389Z,82.32
2018-11-14T15:25:23.550Z,81.78
2018-11-14T15:27:53.041Z,82.45
2018-11-14T15:30:24.805Z,82.18
2018-11-14T15:32:54.000Z,83.02
2018-11-14T15:35:23.301Z,83.42
2018-11-14T15:37:52.489Z,83.43
2018-11-14T15:40:23.020Z,83.06
2018-11-14T15:42:52.335Z,83.25
2018-11-14T15:45:23.953Z,83.06
2018-11-14T15:47:53.099Z,83.59
2018-11-14T15:50:23.698Z,83.68
2018-11-14T15:52:54.177Z,83.90
2018-11-14T15:55:23.733Z,83.35
2018-11-14T15:57:53.096Z,83.67
2018-11-14T16:00:28.530Z,83.36
2018-11-14T16:02:57.677Z,83.40
2018-11-14T16:05:28.185Z,83.54
2018-11-14T16:07:58.521Z,83.70
2018-11-14T16:10:28.549Z,84.06
2018-11-14T16:12:58.058Z,84.16
2018-11-14T16:15:29.581Z,83.91
2018-11-14T16:17:58.852Z,83.86
2018-11-14T16:20:28.213Z,83.00
2018-11-14T16:22:57.405Z,83.19
2018-11-14T16:25:27.317Z,82.65
2018-11-14T16:27:59.574Z,82.17
2018-11-14T16:30:34.101Z,82.67
2018-11-14T16:33:04.507Z,82.28
2018-11-14T16:35:33.783Z,83.48
2018-11-14T16:38:02.968Z,83.53
2018-11-14T16:40:33.368Z,83.50
2018-11-14T16:43:04.064Z,84.16
2018-11-14T16:45:33.230Z,84.13
2018-11-14T16:48:02.382Z,84.10
2018-11-14T16:50:31.533Z,84.60
2018-11-14T16:53:00.929Z,85.63
2018-11-14T16:55:30.132Z,84.41
2018-11-14T16:57:59.262Z,84.45
2018-11-14T17:00:30.542Z,84.82
2018-11-14T17:02:59.904Z,84.02
2018-11-14T17:05:30.248Z,85.07
2018-11-14T17:07:59.463Z,85.13
2018-11-14T17:10:28.665Z,84.80
2018-11-14T17:12:59.083Z,84.20
2018-11-14T17:15:28.562Z,84.98
2018-11-14T17:17:57.743Z,84.83
2018-11-14T17:20:26.960Z,84.87
2018-11-14T17:22:56.457Z,85.17
2018-11-14T17:25:25.609Z,85.07
2018-11-14T17:27:54.797Z,85.01
2018-11-14T17:30:25.495Z,85.29
2018-11-14T17:32:55.044Z,84.72
2018-11-14T17:35:24.161Z,85.48
2018-11-14T17:37:53.326Z,86.22
2018-11-14T17:40:24.668Z,86.20
2018-11-14T17:42:54.331Z,86.80
2018-11-14T17:45:27.026Z,86.38
2018-11-14T17:47:56.761Z,86.50
2018-11-14T17:50:32.589Z,86.69
2018-11-14T17:53:02.606Z,86.92
2018-11-14T17:55:32.040Z,86.63
2018-11-14T17:58:01.371Z,86.39
2018-11-14T18:00:31.350Z,85.76
2018-11-14T18:03:00.628Z,86.04
2018-11-14T18:05:30.841Z,85.82
2018-11-14T18:08:00.113Z,86.47
2018-11-14T18:10:30.351Z,86.83
2018-11-14T18:13:00.601Z,87.35
2018-11-14T18:15:29.985Z,85.46
2018-11-14T18:17:59.500Z,86.11
2018-11-14T18:20:30.132Z,86.35
2018-11-14T18:22:59.618Z,86.67
2018-11-14T18:25:28.815Z,87.03
2018-11-14T18:27:58.129Z,87.17
2018-11-14T18:30:28.863Z,87.01
2018-11-14T18:32:58.973Z,87.08
2018-11-14T18:35:28.517Z,86.37
2018-11-14T18:37:58.641Z,86.16
2018-11-14T18:40:30.096Z,86.66
2018-11-14T18:42:59.288Z,86.36
2018-11-14T18:45:29.781Z,86.50
2018-11-14T18:47:59.854Z,86.45
2018-11-14T18:50:29.240Z,85.92
2018-11-14T18:52:58.433Z,85.95
2018-11-14T18:55:29.858Z,85.71
2018-11-14T18:57:59.736Z,85.88
2018-11-14T19:00:29.986Z,85.37
2018-11-14T19:02:59.405Z,85.31
2018-11-14T19:05:28.639Z,85.04
2018-11-14T19:07:57.788Z,84.93
2018-11-14T19:10:28.416Z,84.45
2018-11-14T19:12:57.863Z,84.61
2018-11-14T19:15:29.088Z,84.42
2018-11-14T19:17:58.383Z,85.07
2018-11-14T19:20:29.943Z,84.85
2018-11-14T19:22:59.868Z,84.86
2018-11-14T19:25:30.357Z,84.94
2018-11-14T19:27:59.681Z,84.15
2018-11-14T19:30:30.290Z,83.86
2018-11-14T19:33:00.201Z,84.51
2018-11-14T19:35:29.507Z,83.98
2018-11-14T19:37:59.129Z,84.23
2018-11-14T19:40:29.741Z,84.16
2018-11-14T19:43:00.917Z,83.70
2018-11-14T19:45:31.771Z,84.77
2018-11-14T19:48:00.946Z,84.84
2018-11-14T19:50:30.164Z,84.86
2018-11-14T19:52:59.322Z,84.81
2018-11-14T19:55:28.860Z,84.99
2018-11-14T19:57:59.387Z,84.03
2018-11-14T20:00:30.008Z,84.91
2018-11-14T20:02:59.344Z,84.74
2018-11-14T20:05:28.574Z,85.48
2018-11-14T20:07:57.814Z,85.12
2018-11-14T20:10:28.427Z,85.31
2018-11-14T20:12:57.625Z,85.13
2018-11-14T20:15:29.177Z,84.73
2018-11-14T20:17:58.335Z,84.71
2018-11-14T20:20:28.900Z,84.78
2018-11-14T20:22:58.417Z,84.46
2018-11-14T20:25:27.655Z,84.56
2018-11-14T20:27:56.921Z,83.83
2018-11-14T20:30:27.280Z,84.32
2018-11-14T20:32:57.741Z,84.36
2018-11-14T20:35:27.455Z,84.64
2018-11-14T20:37:56.660Z,84.41
2018-11-14T20:40:26.382Z,84.78
2018-11-14T20:42:56.974Z,84.81
2018-11-14T20:45:31.844Z,84.71
2018-11-14T20:48:01.000Z,84.22
2018-11-14T20:50:30.169Z,84.66
2018-11-14T20:53:01.568Z,84.13
2018-11-14T20:55:31.524Z,84.58
2018-11-14T20:58:01.190Z,84.76
2018-11-14T21:00:34.876Z,84.58
2018-11-14T21:03:04.126Z,84.65
2018-11-14T21:05:33.766Z,84.01
2018-11-14T21:08:02.899Z,84.21
2018-11-14T21:10:33.699Z,84.43
2018-11-14T21:13:03.861Z,84.89
2018-11-14T21:15:35.442Z,84.46
2018-11-14T21:18:04.935Z,84.83
2018-11-14T21:20:34.117Z,84.48
2018-11-14T21:23:03.411Z,84.17
2018-11-14T21:25:32.481Z,84.43
2018-11-14T21:28:01.671Z,83.77
2018-11-14T21:30:31.310Z,84.36
2018-11-14T21:33:00.593Z,84.52
2018-11-14T21:35:31.869Z,84.13
2018-11-14T21:38:02.396Z,84.55
2018-11-14T21:40:32.035Z,84.61
2018-11-14T21:43:01.230Z,84.18
2018-11-14T21:45:30.721Z,84.04
2018-11-14T21:48:05.217Z,83.73
2018-11-14T21:50:34.751Z,84.03
2018-11-14T21:53:03.935Z,84.02
2018-11-14T21:55:33.106Z,84.63
2018-11-14T21:58:02.327Z,84.65
2018-11-14T22:00:31.475Z,84.55
2018-11-14T22:03:00.802Z,84.69
2018-11-14T22:05:30.021Z,84.30
2018-11-14T22:07:59.220Z,84.43
2018-11-14T22:10:28.392Z,84.39
2018-11-14T22:12:57.599Z,84.34
2018-11-14T22:15:28.013Z,84.50
2018-11-14T22:17:57.190Z,84.38
2018-11-14T22:20:27.154Z,84.31
2018-11-14T22:22:56.327Z,84.39
2018-11-14T22:25:26.461Z,84.30
2018-11-14T22:27:55.776Z,84.48
2018-11-14T22:30:30.021Z,84.71
2018-11-14T22:32:59.190Z,84.87
2018-11-14T22:35:29.591Z,84.92
2018-11-14T22:37:58.697Z,84.91
2018-11-14T22:40:29.165Z,84.60
2018-11-14T22:42:58.363Z,84.85
2018-11-14T22:45:32.645Z,85.07
2018-11-14T22:48:01.793Z,85.16
2018-11-14T22:50:30.972Z,84.94
2018-11-14T22:53:00.478Z,85.02
2018-11-14T22:55:29.640Z,85.06
2018-11-14T22:57:58.792Z,85.06
2018-11-14T23:00:30.681Z,85.20
2018-11-14T23:03:01.272Z,85.34
2018-11-14T23:05:30.420Z,85.02
2018-11-14T23:08:00.025Z,85.71
2018-11-14T23:10:29.351Z,86.27
2018-11-14T23:12:58.505Z,86.04
2018-11-14T23:15:27.699Z,86.24
2018-11-14T23:17:56.834Z,86.01
2018-11-14T23:20:25.961Z,86.18
2018-11-14T23:22:55.546Z,86.25
2018-11-14T23:25:24.913Z,85.99
2018-11-14T23:27:55.153Z,86.08
2018-11-14T23:30:25.475Z,86.26
2018-11-14T23:32:55.461Z,85.99
2018-11-14T23:35:27.761Z,85.98
2018-11-14T23:38:00.187Z,85.67
2018-11-14T23:40:29.545Z,84.97
2018-11-14T23:42:58.732Z,84.98
2018-11-14T23:45:28.461Z,85.68
2018-11-14T23:47:57.633Z,85.25
2018-11-14T23:50:27.985Z,84.99
2018-11-14T23:52:58.058Z,84.50
2018-11-14T23:55:28.098Z,85.43
2018-11-14T23:57:57.579Z,85.12
